Time,TemperatureF,DewpointF,PressureIn,WindDirection,WindDirectionDegrees,WindSpeedMPH,WindSpeedGustMPH,Humidity,HourlyPrecipIn,Conditions,Clouds,dailyrainin,SoftwareType,DateUTC
2013-04-26 00:00:00,77.0,69.0,30.12,East,80,25.0,-999.0,75,-99.99,,,-99.99,,2013-04-26 08:00:00,
2013-04-26 00:11:00,77.0,69.0,30.12,East,80,25.0,-999.0,75,-99.99,,,-99.99,,2013-04-26 08:11:00,
2013-04-26 00:21:00,77.0,69.0,30.12,East,80,25.0,-999.0,75,-99.99,,,-99.99,,2013-04-26 08:21:00,
2013-04-26 00:31:00,77.0,69.0,30.12,East,80,25.0,-999.0,75,-99.99,,,-99.99,,2013-04-26 08:31:00,
2013-04-26 00:42:00,77.0,69.0,30.12,East,80,25.0,-999.0,75,-99.99,,,-99.99,,2013-04-26 08:42:00,
2013-04-26 00:51:00,77.0,69.0,30.12,East,80,25.0,-999.0,75,-99.99,,,-99.99,,2013-04-26 08:51:00,
2013-04-26 01:21:00,77.0,47.0,30.09,East,80,22.0,-999.0,35,-99.99,,,-99.99,,2013-04-26 09:21:00,
2013-04-26 02:00:00,77.0,51.0,30.09,NE,50,21.0,-999.0,40,-99.99,,,-99.99,,2013-04-26 10:00:00,
2013-04-26 02:22:00,77.0,51.0,30.09,NE,50,21.0,-999.0,40,-99.99,,,-99.99,,2013-04-26 10:22:00,
2013-04-26 02:32:00,77.0,51.0,30.09,NE,50,21.0,-999.0,40,-99.99,,,-99.99,,2013-04-26 10:32:00,
2013-04-26 02:41:00,77.0,51.0,30.09,NE,50,21.0,-999.0,40,-99.99,,,-99.99,,2013-04-26 10:41:00,
2013-04-26 02:52:00,77.0,51.0,30.09,NE,50,21.0,-999.0,40,-99.99,,,-99.99,,2013-04-26 10:52:00,
2013-04-26 03:00:00,77.0,48.0,30.10,ENE,70,20.0,-999.0,35,-99.99,,,-99.99,,2013-04-26 11:00:00,
2013-04-26 03:21:00,77.0,48.0,30.10,ENE,70,20.0,-999.0,35,-99.99,,,-99.99,,2013-04-26 11:21:00,
2013-04-26 03:32:00,77.0,48.0,30.10,ENE,70,20.0,-999.0,35,-99.99,,,-99.99,,2013-04-26 11:32:00,
2013-04-26 03:41:00,77.0,48.0,30.10,ENE,70,20.0,-999.0,35,-99.99,,,-99.99,,2013-04-26 11:41:00,
2013-04-26 03:51:00,77.0,48.0,30.10,ENE,70,20.0,-999.0,35,-99.99,,,-99.99,,2013-04-26 11:51:00,
2013-04-26 05:21:00,79.0,48.0,30.16,ENE,70,21.0,-999.0,33,-99.99,,,-99.99,,2013-04-26 13:21:00,
2013-04-26 05:31:00,79.0,48.0,30.16,ENE,70,21.0,-999.0,33,-99.99,,,-99.99,,2013-04-26 13:31:00,
2013-04-26 09:00:00,80.0,63.0,30.22,SW,230,23.0,-999.0,55,-99.99,,,-99.99,,2013-04-26 17:00:00,
2013-04-26 09:21:00,80.0,63.0,30.22,SW,230,23.0,-999.0,55,-99.99,,,-99.99,,2013-04-26 17:21:00,
2013-04-26 09:31:00,80.0,63.0,30.22,SW,230,23.0,-999.0,55,-99.99,,,-99.99,,2013-04-26 17:31:00,
2013-04-26 09:41:00,80.0,63.0,30.22,SW,230,23.0,-999.0,55,-99.99,,,-99.99,,2013-04-26 17:41:00,
2013-04-26 09:51:00,80.0,63.0,30.22,SW,230,23.0,-999.0,55,-99.99,,,-99.99,,2013-04-26 17:51:00,
2013-04-26 11:00:00,79.0,63.0,30.19,SSW,210,23.0,-999.0,58,-99.99,,,-99.99,,2013-04-26 19:00:00,
2013-04-26 11:21:00,79.0,63.0,30.19,SSW,210,23.0,-999.0,58,-99.99,,,-99.99,,2013-04-26 19:21:00,
2013-04-26 11:31:00,79.0,63.0,30.19,SSW,210,23.0,-999.0,58,-99.99,,,-99.99,,2013-04-26 19:31:00,
2013-04-26 11:41:00,79.0,63.0,30.19,SSW,210,23.0,-999.0,58,-99.99,,,-99.99,,2013-04-26 19:41:00,
2013-04-26 11:52:00,79.0,63.0,30.19,SSW,210,23.0,-999.0,58,-99.99,,,-99.99,,2013-04-26 19:52:00,
2013-04-26 13:21:00,77.0,46.0,30.14,South,180,23.0,-999.0,32,-99.99,,,-99.99,,2013-04-26 21:21:00,
2013-04-26 13:32:00,77.0,46.0,30.14,South,180,23.0,-999.0,32,-99.99,,,-99.99,,2013-04-26 21:32:00,
2013-04-26 14:22:00,76.0,45.0,30.15,East,80,22.0,-999.0,33,-99.99,,,-99.99,,2013-04-26 22:22:00,
2013-04-26 15:21:00,76.0,46.0,30.15,East,90,25.0,-999.0,33,-99.99,,,-99.99,,2013-04-26 23:21:00,
2013-04-26 15:32:00,76.0,46.0,30.15,East,90,25.0,-999.0,33,-99.99,,,-99.99,,2013-04-26 23:32:00,
2013-04-26 22:00:00,75.0,62.0,30.21,ENE,70,17.0,-999.0,65,-99.99,,,-99.99,,2013-04-27 06:00:00,
2013-04-26 22:21:00,75.0,62.0,30.21,ENE,70,17.0,-999.0,65,-99.99,,,-99.99,,2013-04-27 06:21:00,
2013-04-26 22:32:00,75.0,62.0,30.21,ENE,70,17.0,-999.0,65,-99.99,,,-99.99,,2013-04-27 06:32:00,
2013-04-26 22:41:00,75.0,62.0,30.21,ENE,70,17.0,-999.0,65,-99.99,,,-99.99,,2013-04-27 06:41:00,
2013-04-26 22:51:00,75.0,62.0,30.21,ENE,70,17.0,-999.0,65,-99.99,,,-99.99,,2013-04-27 06:51:00,